Terminal Aerodrome Forecast
Issued by NWS

Home | Current Version | Previous Version | Graphics & Text | Print | Product List | Glossary On
Versions: 1 2 3 4 5 6 7 8 9 10 11 12 13 14 15 16 17
000
FTUS43 KFGF 231100
TAFBJI
TAF
KBJI 231120Z 2312/2412 26010KT P6SM SCT060
      TEMPO 2316/2318 BKN025
     FM231800 29010KT P6SM OVC030=

USA.gov is the U.S. government's official web portal to all federal, state and local government web resources and services.